Decoded Metar for KEEN (KEENE/DILLANT in NH, USA) (IATA:EEN) | Meteo·Mobile Aviation Weather
aviador You're here:

KEEN Decoded Metar

KEENE/DILLANT in NH, USA
Report Time2019-02-23 16:56:00
UTC Time2019-02-23 17:13:28
Flight Rules vfr VFR
WindCalm
Visibility9999 m
Phenomena:N/A
Clouds:N/A
Expected CloudBase > 4,000 ft AGL from Temp-Dew spread
CeilingNone
Temp01°C (ISA -13)
Dew Point-9°C (48% RH)
AAT-2.0°C
QNH1030 hPa
Density Alt-1,627 ft
Elevation489 ft
Report Wrong Elevation
Raw Report
KEEN 231656Z AUTO 00000KT 10SM CLR 01/M09 A3042 RMK AO2 UPE19
SLP326 P0000 T00111094 FZRANO $=

Extra information for KEEN:More info

Metar Taf Metar & Taf Last 4 Metars F.Rules Stats Wind Profile Meteogram Temp Stats Airport Information Weather charts Add Link Nearby VenuesMetar ALERT Operation Metar Decoded Social comments

AIRNAV info for KEEN